Time;durP1;ratioP1;P1;durP2;ratioP2;P2;SDS_P1;SDS_P2;PMS_P1;PMS_P2;Temp;Humidity;BMP_temperature;BMP_pressure;BME280_temperature;BME280_humidity;BME280_pressure;Samples;Min_cycle;Max_cycle;Signal;HPM_P1;HPM_P2
2021/04/28 00:00:32;;;;;;;93.90;47.33;;;;;;;2.36;38.06;98847.89;125996;1096;102981;-80
2021/04/28 00:03:16;;;;;;;93.15;48.30;;;;;;;2.34;38.29;98841.84;126027;1101;102981;-79
2021/04/28 00:05:43;;;;;;;94.80;47.50;;;;;;;2.33;38.44;98842.77;126054;1096;103260;-76
2021/04/28 00:08:11;;;;;;;95.53;49.40;;;;;;;2.29;38.35;98830.69;125928;1101;103027;-78
2021/04/28 00:10:42;;;;;;;89.25;43.85;;;;;;;2.25;38.44;98842.23;125986;1101;103080;-78
2021/04/28 00:13:15;;;;;;;79.33;42.13;;;;;;;2.22;38.66;98837.98;125970;1101;103113;-76
2021/04/28 00:15:48;;;;;;;85.05;43.20;;;;;;;2.15;38.36;98834.73;126003;1101;103240;-77
2021/04/28 00:18:17;;;;;;;94.63;49.63;;;;;;;2.11;38.87;98833.16;125997;1101;103160;-79
2021/04/28 00:20:47;;;;;;;95.80;49.93;;;;;;;2.08;38.91;98839.40;125965;1101;102981;-78
2021/04/28 00:23:15;;;;;;;90.93;46.37;;;;;;;2.06;39.01;98833.36;125990;1096;103023;-76
2021/04/28 00:25:44;;;;;;;84.10;45.07;;;;;;;2.00;39.04;98828.36;125978;1101;102981;-76
2021/04/28 00:28:13;;;;;;;81.53;43.73;;;;;;;1.97;38.69;98827.65;126037;1101;102999;-75
2021/04/28 00:30:42;;;;;;;89.47;44.30;;;;;;;1.92;38.99;98828.69;125989;1101;103131;-76
2021/04/28 00:33:10;;;;;;;92.00;47.03;;;;;;;1.89;38.82;98827.94;125704;1101;103110;-76
2021/04/28 00:35:39;;;;;;;91.90;46.47;;;;;;;1.83;38.64;98836.09;125757;1096;103082;-75
2021/04/28 00:38:07;;;;;;;89.83;46.07;;;;;;;1.82;39.41;98835.22;126044;1096;103148;-78
2021/04/28 00:40:39;;;;;;;92.97;43.97;;;;;;;1.78;38.91;98831.01;125764;1101;103099;-80
2021/04/28 00:43:08;;;;;;;90.80;47.37;;;;;;;1.76;39.47;98830.22;125774;1101;103041;-80
2021/04/28 00:45:38;;;;;;;90.70;45.33;;;;;;;1.72;38.81;98829.50;125771;1101;103067;-81
2021/04/28 00:48:09;;;;;;;88.00;45.87;;;;;;;1.69;39.20;98829.63;126061;1096;103067;-81
2021/04/28 00:50:45;;;;;;;87.37;44.80;;;;;;;1.69;39.48;98815.64;126019;1101;103014;-79
2021/04/28 00:53:17;;;;;;;90.30;45.77;;;;;;;1.61;39.63;98813.34;126296;1101;101904;-80
2021/04/28 00:55:49;;;;;;;90.30;47.87;;;;;;;1.62;39.54;98823.78;126105;1101;103575;-80
2021/04/28 00:58:20;;;;;;;82.67;46.30;;;;;;;1.59;39.45;98823.03;125816;1096;102995;-77
2021/04/28 01:00:48;;;;;;;87.30;45.27;;;;;;;1.58;39.43;98834.43;125945;1102;103007;-77
2021/04/28 01:03:15;;;;;;;87.50;44.57;;;;;;;1.52;39.59;98824.19;125746;1096;103110;-78
2021/04/28 01:05:43;;;;;;;89.73;44.87;;;;;;;1.50;39.87;98832.13;125909;1101;103077;-78
2021/04/28 01:08:16;;;;;;;89.70;45.33;;;;;;;1.49;39.82;98822.55;125958;1101;103109;-78
2021/04/28 01:10:45;;;;;;;90.07;45.83;;;;;;;1.47;39.84;98830.45;125930;1101;103009;-78
2021/04/28 01:13:12;;;;;;;84.10;42.77;;;;;;;1.44;39.68;98821.88;126035;1101;103470;-78
2021/04/28 01:15:40;;;;;;;90.97;45.57;;;;;;;1.41;39.77;98820.24;125980;1096;103065;-81
2021/04/28 01:18:09;;;;;;;88.30;46.60;;;;;;;1.41;39.82;98832.48;126069;1101;103046;-80
2021/04/28 01:20:39;;;;;;;90.90;46.20;;;;;;;1.37;39.92;98830.88;126084;1101;103136;-78
2021/04/28 01:23:11;;;;;;;86.77;45.50;;;;;;;1.34;40.44;98827.47;125965;1101;103148;-78
2021/04/28 01:25:39;;;;;;;90.60;44.80;;;;;;;1.33;40.34;98824.92;125867;1101;103437;-79
2021/04/28 01:28:16;;;;;;;92.63;48.27;;;;;;;1.31;40.21;98831.98;125975;1101;103008;-78
2021/04/28 01:30:52;;;;;;;85.03;44.23;;;;;;;1.28;40.38;98830.32;126039;1101;103011;-78
2021/04/28 01:33:25;;;;;;;85.65;43.90;;;;;;;1.24;40.01;98833.97;126015;1096;103543;-78
2021/04/28 01:35:56;;;;;;;89.80;46.93;;;;;;;1.21;40.36;98826.25;125922;1096;102962;-78
2021/04/28 01:38:29;;;;;;;82.73;44.97;;;;;;;1.17;40.25;98827.28;125621;1101;103148;-77
2021/04/28 01:40:57;;;;;;;94.25;44.95;;;;;;;1.12;40.05;98826.59;125944;1101;103008;-76
2021/04/28 01:43:26;;;;;;;80.75;41.40;;;;;;;1.11;40.27;98824.89;125954;1101;103052;-75
2021/04/28 01:45:59;;;;;;;82.90;43.70;;;;;;;1.11;40.37;98835.37;125928;1101;103107;-75
2021/04/28 01:48:27;;;;;;;84.17;43.90;;;;;;;1.10;40.25;98824.02;125969;1096;102980;-76
2021/04/28 01:50:58;;;;;;;84.07;42.30;;;;;;;1.09;40.46;98821.47;125937;1101;103010;-77
2021/04/28 01:53:26;;;;;;;85.60;44.27;;;;;;;1.06;40.49;98818.97;125945;1101;102988;-77
2021/04/28 01:55:56;;;;;;;90.37;42.90;;;;;;;1.02;40.92;98820.83;125982;1101;103100;-77
2021/04/28 01:58:25;;;;;;;83.43;44.43;;;;;;;0.99;40.90;98818.35;125962;1096;103145;-77
2021/04/28 02:00:55;;;;;;;80.23;43.07;;;;;;;0.94;40.69;98810.65;125643;1096;102803;-77
2021/04/28 02:03:24;;;;;;;88.30;44.53;;;;;;;0.91;40.60;98805.52;125986;1101;103027;-76
2021/04/28 02:05:53;;;;;;;83.27;41.77;;;;;;;0.90;40.72;98803.81;125975;1101;103077;-78
2021/04/28 02:08:22;;;;;;;78.77;40.43;;;;;;;0.82;40.76;98806.73;126051;1096;103075;-77
2021/04/28 02:10:49;;;;;;;79.23;41.77;;;;;;;0.77;41.13;98798.19;125997;1101;103032;-76
2021/04/28 02:13:20;;;;;;;78.60;41.17;;;;;;;0.76;41.05;98803.50;125930;1101;103080;-76
2021/04/28 02:15:50;;;;;;;76.10;41.43;;;;;;;0.74;41.19;98793.94;125996;1101;103103;-78
2021/04/28 02:18:19;;;;;;;79.97;44.43;;;;;;;0.72;40.79;98803.61;125943;1101;103008;-77
2021/04/28 02:20:47;;;;;;;85.27;41.50;;;;;;;0.67;41.32;98799.43;126007;1101;103189;-77
2021/04/28 02:23:16;;;;;;;80.33;43.27;;;;;;;0.65;40.84;98807.35;125960;1101;102998;-76
2021/04/28 02:25:45;;;;;;;87.23;43.20;;;;;;;0.61;41.20;98803.13;125963;1101;102989;-77
2021/04/28 02:28:12;;;;;;;82.80;42.50;;;;;;;0.57;40.81;98805.02;126022;1101;102971;-77
2021/04/28 02:30:41;;;;;;;82.87;44.30;;;;;;;0.56;41.09;98800.70;125998;1101;103455;-77
2021/04/28 02:33:08;;;;;;;80.40;40.87;;;;;;;0.56;41.73;98799.83;126012;1101;103445;-76
2021/04/28 02:35:41;;;;;;;85.60;45.07;;;;;;;0.56;41.44;98802.44;125983;1096;103142;-77
2021/04/28 02:38:24;;;;;;;97.53;48.50;;;;;;;0.53;41.49;98797.31;125961;1101;103135;-75
2021/04/28 02:40:54;;;;;;;90.50;47.20;;;;;;;0.49;41.32;98795.72;125986;1096;102977;-75
2021/04/28 02:43:23;;;;;;;89.20;44.97;;;;;;;0.47;41.46;98802.77;125957;1096;102984;-77
2021/04/28 02:45:54;;;;;;;95.47;50.43;;;;;;;0.44;41.63;98798.52;125994;1101;103011;-77
2021/04/28 02:48:26;;;;;;;90.43;46.63;;;;;;;0.42;41.41;98792.48;125963;1101;103141;-77
2021/04/28 02:50:56;;;;;;;94.00;46.37;;;;;;;0.40;41.49;98797.78;125967;1101;103080;-77
2021/04/28 02:53:27;;;;;;;86.97;45.10;;;;;;;0.39;42.02;98798.69;125997;1101;102987;-76
2021/04/28 02:55:59;;;;;;;91.67;45.50;;;;;;;0.36;41.72;98796.17;125968;1101;103114;-74
2021/04/28 02:58:28;;;;;;;88.87;44.33;;;;;;;0.36;41.82;98800.54;125656;1101;103123;-74
2021/04/28 03:00:58;;;;;;;90.70;47.50;;;;;;;0.31;41.78;98795.48;126001;1101;103551;-74
2021/04/28 03:03:27;;;;;;;90.20;45.40;;;;;;;0.30;42.03;98796.39;125629;1096;103439;-76
2021/04/28 03:05:56;;;;;;;84.17;45.97;;;;;;;0.27;41.99;98789.48;125989;1101;102987;-77
2021/04/28 03:08:24;;;;;;;85.90;44.23;;;;;;;0.28;41.65;98798.20;125955;1101;103116;-79
2021/04/28 03:10:53;;;;;;;85.87;46.80;;;;;;;0.24;41.65;98800.05;125978;1101;103012;-78
2021/04/28 03:13:21;;;;;;;87.73;46.80;;;;;;;0.22;42.16;98794.02;125994;1101;103457;-76
2021/04/28 03:15:49;;;;;;;86.80;46.10;;;;;;;0.21;41.81;98791.47;125943;1101;102997;-75
2021/04/28 03:18:19;;;;;;;84.73;45.50;;;;;;;0.21;41.89;98796.70;125988;1097;103090;-75
2021/04/28 03:20:48;;;;;;;79.57;43.63;;;;;;;0.18;42.14;98795.06;125994;1097;103080;-75
2021/04/28 03:23:16;;;;;;;79.77;41.07;;;;;;;0.18;41.92;98800.29;125978;1101;103089;-78
2021/04/28 03:25:43;;;;;;;84.57;41.50;;;;;;;0.18;42.20;98795.06;125967;1101;102989;-76
2021/04/28 03:28:11;;;;;;;95.63;46.50;;;;;;;0.16;42.73;98791.64;125581;1102;103151;-81
2021/04/28 03:30:39;;;;;;;106.23;50.13;;;;;;;0.15;42.43;98795.16;125811;1096;103140;-77
2021/04/28 03:33:06;;;;;;;108.57;50.00;;;;;;;0.14;42.38;98796.06;125959;1101;103212;-77
2021/04/28 03:35:34;;;;;;;101.20;48.23;;;;;;;0.14;42.18;98796.06;125995;1101;103013;-78
2021/04/28 03:38:02;;;;;;;90.37;48.10;;;;;;;0.14;42.40;98790.84;125954;1101;103128;-79
2021/04/28 03:40:30;;;;;;;95.63;48.27;;;;;;;0.16;42.33;98802.10;125929;1101;103171;-79
2021/04/28 03:42:58;;;;;;;98.33;48.53;;;;;;;0.15;42.38;98800.39;125760;1097;102984;-73
2021/04/28 03:45:25;;;;;;;91.17;45.97;;;;;;;0.14;43.05;98806.53;125858;1097;103017;-74
2021/04/28 03:47:53;;;;;;;84.37;41.27;;;;;;;0.16;42.67;98801.23;125949;1101;103155;-73
2021/04/28 03:50:20;;;;;;;85.43;43.20;;;;;;;0.16;43.02;98812.56;125850;1101;103068;-74
2021/04/28 03:53:05;;;;;;;86.83;43.07;;;;;;;0.16;43.05;98809.08;125876;1101;102983;-73
2021/04/28 03:55:33;;;;;;;76.83;41.73;;;;;;;0.14;43.11;98807.37;125734;1096;102984;-77
2021/04/28 03:58:00;;;;;;;83.20;43.70;;;;;;;0.14;42.83;98814.38;125854;1096;103161;-77
2021/04/28 04:00:27;;;;;;;70.83;38.30;;;;;;;0.16;43.12;98811.69;125941;1096;103007;-76
2021/04/28 04:02:55;;;;;;;73.43;38.83;;;;;;;0.17;42.78;98816.02;125919;1101;103148;-74
2021/04/28 04:05:22;;;;;;;77.97;38.77;;;;;;;0.18;42.99;98815.11;125863;1101;103059;-73
2021/04/28 04:07:51;;;;;;;68.07;34.87;;;;;;;0.20;43.45;98816.79;126032;1101;103080;-75
2021/04/28 04:10:18;;;;;;;64.97;33.83;;;;;;;0.21;42.89;98810.62;125709;1102;102988;-77
2021/04/28 04:12:45;;;;;;;65.07;32.73;;;;;;;0.23;43.29;98808.80;125773;1101;103071;-74
2021/04/28 04:15:13;;;;;;;59.47;32.80;;;;;;;0.26;43.23;98808.70;126039;1101;102984;-73
2021/04/28 04:17:40;;;;;;;61.23;31.43;;;;;;;0.28;43.10;98808.66;125675;1101;103042;-73
2021/04/28 04:20:08;;;;;;;52.53;27.00;;;;;;;0.28;43.36;98806.89;126015;1096;103082;-73
2021/04/28 04:22:36;;;;;;;50.73;27.33;;;;;;;0.32;43.51;98812.02;125970;1101;103005;-72
2021/04/28 04:25:06;;;;;;;56.73;29.00;;;;;;;0.35;43.56;98807.55;125782;1101;103052;-75
2021/04/28 04:27:34;;;;;;;54.70;28.60;;;;;;;0.40;43.54;98810.86;125993;1101;103016;-76
2021/04/28 04:30:07;;;;;;;54.13;29.90;;;;;;;0.44;43.73;98814.21;125874;1101;103460;-74
2021/04/28 04:32:34;;;;;;;45.60;25.30;;;;;;;0.50;43.45;98813.13;126116;1101;103210;-75
2021/04/28 04:35:02;;;;;;;50.43;26.00;;;;;;;0.54;43.74;98814.73;125983;1101;103072;-73
2021/04/28 04:37:29;;;;;;;47.17;23.77;;;;;;;0.58;43.51;98822.44;125997;1101;103008;-74
2021/04/28 04:39:57;;;;;;;47.47;24.83;;;;;;;0.63;43.36;98818.77;125957;1096;104657;-76
2021/04/28 04:42:25;;;;;;;48.93;25.07;;;;;;;0.69;43.90;98822.05;125971;1101;103082;-75
2021/04/28 04:44:52;;;;;;;47.00;24.93;;;;;;;0.76;43.97;98821.83;125977;1101;102986;-78
2021/04/28 04:47:19;;;;;;;43.53;22.53;;;;;;;0.82;43.94;98817.20;126000;1101;103442;-74
2021/04/28 04:49:47;;;;;;;43.13;23.80;;;;;;;0.88;43.83;98816.98;125965;1101;102981;-74
2021/04/28 04:52:20;;;;;;;47.45;24.75;;;;;;;0.95;44.00;98814.14;125954;1101;103007;-74
2021/04/28 04:54:47;;;;;;;46.60;24.20;;;;;;;1.02;44.22;98823.45;125619;1101;103110;-75
2021/04/28 04:57:14;;;;;;;41.73;22.70;;;;;;;1.08;43.91;98822.39;125988;1101;103743;-80
2021/04/28 04:59:42;;;;;;;48.67;25.87;;;;;;;1.14;44.59;98825.61;125955;1101;103369;-76
2021/04/28 05:02:09;;;;;;;44.00;25.67;;;;;;;1.21;43.99;98822.77;125682;1101;103075;-75
2021/04/28 05:04:37;;;;;;;46.97;24.07;;;;;;;1.27;44.19;98822.53;125882;1096;103077;-73
2021/04/28 05:07:04;;;;;;;41.90;22.70;;;;;;;1.34;44.27;98826.63;125941;1101;103139;-75
2021/04/28 05:09:31;;;;;;;46.53;23.07;;;;;;;1.40;44.30;98821.16;125958;1101;103009;-75
2021/04/28 05:11:59;;;;;;;37.43;20.93;;;;;;;1.45;44.25;98819.18;125923;1101;102984;-72
2021/04/28 05:14:27;;;;;;;41.43;21.53;;;;;;;1.53;44.21;98820.65;125933;1096;103034;-76
2021/04/28 05:16:55;;;;;;;41.23;21.43;;;;;;;1.59;44.32;98818.66;125613;1102;103186;-77
2021/04/28 05:19:22;;;;;;;45.90;22.37;;;;;;;1.67;44.09;98812.23;125912;1101;103082;-74
2021/04/28 05:21:50;;;;;;;41.57;22.57;;;;;;;1.73;44.21;98807.61;125962;1096;103068;-75
2021/04/28 05:24:17;;;;;;;46.50;22.30;;;;;;;1.80;44.33;98792.46;125589;1102;102998;-75
2021/04/28 05:26:44;;;;;;;49.70;25.50;;;;;;;1.85;44.73;98798.38;125916;1097;103142;-74
2021/04/28 05:29:12;;;;;;;47.65;25.43;;;;;;;1.91;44.44;98799.88;125890;1101;103201;-74
2021/04/28 05:31:39;;;;;;;39.45;22.70;;;;;;;1.97;44.51;98794.38;125860;1097;103078;-74
2021/04/28 05:34:07;;;;;;;47.83;23.10;;;;;;;2.05;44.58;98797.55;125926;1101;103056;-75
2021/04/28 05:36:34;;;;;;;46.43;23.87;;;;;;;2.12;44.69;98790.25;125908;1097;103076;-74
2021/04/28 05:39:02;;;;;;;43.75;22.93;;;;;;;2.18;44.44;98795.25;125927;1101;103471;-75
2021/04/28 05:41:29;;;;;;;47.63;24.33;;;;;;;2.26;44.61;98792.28;125988;1101;103104;-74
2021/04/28 05:43:57;;;;;;;38.37;21.80;;;;;;;2.33;45.14;98791.11;125971;1096;102984;-73
2021/04/28 05:46:25;;;;;;;39.20;21.07;;;;;;;2.41;44.83;98790.80;125960;1101;103080;-76
2021/04/28 05:48:53;;;;;;;42.60;22.27;;;;;;;2.48;44.54;98791.37;125955;1101;102984;-74
2021/04/28 05:51:20;;;;;;;37.40;21.53;;;;;;;2.57;45.04;98790.09;125974;1101;103432;-75
2021/04/28 05:53:48;;;;;;;41.85;22.85;;;;;;;2.64;45.18;98792.41;125945;1101;103008;-74
2021/04/28 05:56:15;;;;;;;46.90;24.00;;;;;;;2.73;44.77;98785.01;125952;1101;103008;-75
2021/04/28 05:58:42;;;;;;;44.03;24.93;;;;;;;2.80;44.98;98784.68;125952;1101;103097;-75
2021/04/28 06:01:10;;;;;;;43.63;22.67;;;;;;;2.89;45.17;98780.77;125935;1101;103452;-74
2021/04/28 06:03:37;;;;;;;43.43;23.27;;;;;;;2.96;44.89;98773.45;125983;1101;102979;-76
2021/04/28 06:06:08;;;;;;;42.63;21.10;;;;;;;3.04;45.08;98776.58;126001;1101;103572;-76
2021/04/28 06:08:36;;;;;;;40.47;22.00;;;;;;;3.12;45.42;98777.08;125993;1101;102979;-74
2021/04/28 06:11:03;;;;;;;38.27;21.53;;;;;;;3.19;45.11;98772.38;126040;1101;103106;-74
2021/04/28 06:13:31;;;;;;;39.77;22.47;;;;;;;3.27;44.69;98767.62;125970;1101;103073;-74
2021/04/28 06:15:58;;;;;;;37.85;20.80;;;;;;;3.36;44.90;98776.00;125960;1101;103074;-75
2021/04/28 06:18:25;;;;;;;41.23;22.03;;;;;;;3.45;45.42;98774.69;125983;1101;103610;-73
2021/04/28 06:20:53;;;;;;;40.73;21.87;;;;;;;3.54;45.78;98777.72;125971;1101;103079;-74
2021/04/28 06:23:20;;;;;;;42.87;21.40;;;;;;;3.64;45.42;98772.89;125983;1101;103009;-74
2021/04/28 06:25:49;;;;;;;37.93;20.00;;;;;;;3.74;45.40;98775.91;125604;1101;103077;-74
2021/04/28 06:28:16;;;;;;;35.67;20.10;;;;;;;3.82;45.47;98775.52;125987;1101;103005;-74
2021/04/28 06:30:44;;;;;;;35.53;20.37;;;;;;;3.92;45.39;98784.66;125993;1101;103155;-74
2021/04/28 06:33:11;;;;;;;37.73;21.30;;;;;;;4.01;45.89;98785.98;125969;1101;103117;-74
2021/04/28 06:35:38;;;;;;;37.77;20.83;;;;;;;4.10;45.00;98787.28;125953;1101;102982;-74
2021/04/28 06:38:06;;;;;;;39.43;20.03;;;;;;;4.21;45.42;98781.50;125947;1096;103077;-75
2021/04/28 06:40:34;;;;;;;36.70;20.63;;;;;;;4.30;46.36;98781.87;125969;1101;103096;-74
2021/04/28 06:43:06;;;;;;;35.90;20.40;;;;;;;4.39;45.68;98780.53;125968;1096;103503;-74
2021/04/28 06:45:35;;;;;;;40.90;20.33;;;;;;;4.51;45.75;98786.09;125955;1096;102987;-75
2021/04/28 06:48:04;;;;;;;35.10;20.47;;;;;;;4.58;45.99;98776.95;126000;1101;103053;-77
2021/04/28 06:50:32;;;;;;;35.90;19.77;;;;;;;4.69;45.86;98785.11;125973;1101;103052;-74
2021/04/28 06:53:07;;;;;;;36.37;19.37;;;;;;;4.80;46.08;98773.16;125984;1101;103077;-74
2021/04/28 06:55:35;;;;;;;37.03;19.43;;;;;;;4.89;46.03;98770.86;125825;1101;103094;-75
2021/04/28 06:58:03;;;;;;;36.20;20.80;;;;;;;5.02;45.68;98767.57;125576;1097;103152;-74
2021/04/28 07:00:33;;;;;;;38.43;21.43;;;;;;;5.14;46.10;98769.55;125662;1096;103457;-76
2021/04/28 07:03:01;;;;;;;37.43;20.27;;;;;;;5.28;45.92;98773.21;125971;1101;103455;-74
2021/04/28 07:05:28;;;;;;;32.63;19.47;;;;;;;5.45;45.93;98765.19;125904;1096;103087;-74
2021/04/28 07:07:56;;;;;;;38.63;20.40;;;;;;;6.97;44.93;98758.88;125965;1101;103103;-74
2021/04/28 07:10:24;;;;;;;32.30;17.57;;;;;;;9.35;44.02;98757.12;125893;1101;103055;-74
2021/04/28 07:12:52;;;;;;;32.00;17.57;;;;;;;11.59;44.08;98748.86;126038;1101;103626;-74
2021/04/28 07:15:21;;;;;;;29.47;16.40;;;;;;;13.78;44.19;98745.30;125989;1101;103003;-74
2021/04/28 07:17:51;;;;;;;27.00;15.73;;;;;;;15.71;44.19;98741.41;125973;1101;103052;-74
2021/04/28 07:20:20;;;;;;;29.83;16.00;;;;;;;17.45;43.91;98734.48;125918;1096;103077;-74
2021/04/28 07:22:49;;;;;;;27.77;16.03;;;;;;;19.16;44.37;98730.15;125972;1096;103113;-75
2021/04/28 07:25:18;;;;;;;26.83;14.97;;;;;;;20.60;44.06;98732.31;125978;1101;103362;-75
2021/04/28 07:27:47;;;;;;;27.93;15.00;;;;;;;21.86;44.76;98731.42;126001;1101;103112;-75
2021/04/28 07:30:18;;;;;;;25.40;15.27;;;;;;;23.33;44.25;98732.68;125987;1101;103074;-74
2021/04/28 07:32:46;;;;;;;26.33;13.80;;;;;;;24.46;44.44;98733.08;125971;1101;103585;-75
2021/04/28 07:35:21;;;;;;;27.87;14.77;;;;;;;25.17;44.29;98736.09;125935;1101;103260;-75
2021/04/28 07:37:51;;;;;;;25.43;13.47;;;;;;;26.24;44.25;98732.78;125830;1101;103355;-74
2021/04/28 07:40:21;;;;;;;23.90;13.47;;;;;;;27.16;43.95;98728.53;125944;1101;103142;-74
2021/04/28 07:42:51;;;;;;;24.57;13.17;;;;;;;28.00;44.19;98726.99;125830;1101;103029;-74
2021/04/28 07:45:20;;;;;;;24.97;13.17;;;;;;;28.79;43.81;98734.10;125794;1101;102979;-75
2021/04/28 07:47:48;;;;;;;24.67;13.70;;;;;;;29.52;43.44;98721.95;125932;1101;102982;-73
2021/04/28 07:50:19;;;;;;;23.30;13.50;;;;;;;30.17;43.47;98719.83;125947;1096;103080;-78
2021/04/28 07:52:49;;;;;;;24.43;13.83;;;;;;;30.62;43.40;98728.22;125937;1101;102981;-74
2021/04/28 07:55:17;;;;;;;24.70;13.43;;;;;;;31.01;42.39;98722.72;125970;1096;102984;-73
2021/04/28 07:57:46;;;;;;;23.20;13.10;;;;;;;31.36;42.53;98717.96;125984;1101;103005;-75
2021/04/28 08:00:15;;;;;;;26.23;13.40;;;;;;;31.84;42.00;98721.77;125901;1101;103009;-76
2021/04/28 08:02:44;;;;;;;21.07;12.40;;;;;;;31.84;41.00;98719.02;125878;1101;103064;-77
2021/04/28 08:05:13;;;;;;;23.17;12.37;;;;;;;31.63;40.91;98717.95;125908;1101;103052;-78
2021/04/28 08:07:42;;;;;;;24.03;12.53;;;;;;;31.71;40.94;98720.25;125657;1101;103048;-76
2021/04/28 08:10:12;;;;;;;21.80;12.45;;;;;;;31.75;40.53;98724.17;125975;1101;103082;-75
2021/04/28 08:12:39;;;;;;;22.10;12.40;;;;;;;31.78;40.09;98722.84;125782;1101;102998;-76
2021/04/28 08:15:10;;;;;;;23.20;12.77;;;;;;;31.98;40.21;98715.85;125579;1101;103096;-77
2021/04/28 08:17:43;;;;;;;26.47;12.73;;;;;;;32.33;39.53;98714.52;125941;1101;103030;-74
2021/04/28 08:20:13;;;;;;;22.97;12.23;;;;;;;32.32;39.17;98716.45;125966;1101;103062;-75
2021/04/28 08:22:42;;;;;;;20.53;12.30;;;;;;;32.32;39.01;98710.95;125953;1101;102972;-75
2021/04/28 08:25:13;;;;;;;21.03;11.53;;;;;;;32.21;38.04;98709.17;125733;1101;103142;-75
2021/04/28 08:27:42;;;;;;;20.78;11.53;;;;;;;31.75;37.89;98709.61;125998;1101;103087;-76
2021/04/28 08:30:11;;;;;;;21.47;11.80;;;;;;;31.61;37.31;98698.98;125899;1096;103035;-76
2021/04/28 08:32:41;;;;;;;18.83;11.00;;;;;;;31.16;36.78;98698.23;125964;1101;102981;-76
2021/04/28 08:35:14;;;;;;;19.00;10.90;;;;;;;30.84;36.24;98714.53;125936;1097;103008;-75
2021/04/28 08:37:48;;;;;;;20.30;11.43;;;;;;;30.32;36.23;98704.70;125569;1101;103131;-74
2021/04/28 08:40:18;;;;;;;20.43;11.13;;;;;;;30.13;36.11;98704.95;125979;1101;103138;-76
2021/04/28 08:42:48;;;;;;;18.97;10.80;;;;;;;30.14;35.96;98699.23;125944;1101;103117;-76
2021/04/28 08:45:17;;;;;;;20.97;11.57;;;;;;;30.71;35.88;98694.59;125924;1101;103078;-74
2021/04/28 08:47:48;;;;;;;20.00;11.43;;;;;;;31.21;35.63;98694.70;125584;1097;103033;-78
2021/04/28 08:50:16;;;;;;;20.90;11.70;;;;;;;31.57;35.09;98694.28;125814;1096;102984;-78
2021/04/28 08:52:44;;;;;;;19.87;11.83;;;;;;;31.03;34.18;98696.66;125929;1101;103442;-76
2021/04/28 08:55:14;;;;;;;23.53;11.70;;;;;;;30.22;33.77;98703.45;125935;1101;102990;-76
2021/04/28 08:57:43;;;;;;;21.57;11.77;;;;;;;30.27;34.20;98700.80;125918;1095;103003;-78
2021/04/28 09:00:11;;;;;;;20.43;12.47;;;;;;;30.41;33.98;98698.53;125868;1101;103231;-76
2021/04/28 09:03:07;;;;;;;21.07;11.60;;;;;;;30.13;33.51;98697.56;125845;1096;103118;-75
2021/04/28 09:05:38;;;;;;;20.53;11.77;;;;;;;30.44;33.61;98694.44;127414;1101;101286;-75
2021/04/28 09:08:11;;;;;;;19.63;11.03;;;;;;;30.71;33.07;98699.27;127468;1096;101742;-76
2021/04/28 09:10:42;;;;;;;22.57;12.07;;;;;;;30.62;33.12;98693.36;126249;1101;103066;-75
2021/04/28 09:13:19;;;;;;;20.50;11.50;;;;;;;30.93;32.60;98698.44;126626;1101;101493;-74
2021/04/28 09:15:49;;;;;;;18.83;10.37;;;;;;;30.83;32.42;98694.47;125823;1101;103094;-74
2021/04/28 09:18:35;;;;;;;20.47;10.93;;;;;;;30.64;32.55;98688.45;125888;1096;103052;-74
2021/04/28 09:21:03;;;;;;;18.60;10.30;;;;;;;30.90;31.71;98699.80;125872;1096;102977;-74
2021/04/28 09:23:36;;;;;;;22.03;11.83;;;;;;;30.37;31.63;98696.53;125976;1101;102976;-75
2021/04/28 09:26:15;;;;;;;21.90;12.00;;;;;;;30.37;31.92;98697.38;125949;1101;102990;-75
2021/04/28 09:28:52;;;;;;;22.67;11.53;;;;;;;30.52;31.79;98684.98;125600;1101;103118;-75
2021/04/28 09:31:20;;;;;;;21.07;11.80;;;;;;;30.49;30.78;98677.24;125981;1101;103259;-75
2021/04/28 09:33:59;;;;;;;19.70;10.63;;;;;;;30.56;31.40;98675.97;125851;1101;103096;-74
2021/04/28 09:36:37;;;;;;;20.33;11.10;;;;;;;30.51;30.69;98670.41;125957;1096;103122;-72
2021/04/28 09:39:17;;;;;;;21.07;11.07;;;;;;;29.95;30.34;98671.19;125997;1101;102981;-76
2021/04/28 09:41:53;;;;;;;19.97;11.63;;;;;;;29.54;30.16;98670.48;125915;1101;103124;-76
2021/04/28 09:44:31;;;;;;;20.00;10.57;;;;;;;29.66;30.34;98673.16;125906;1101;103056;-77
2021/04/28 09:47:05;;;;;;;18.73;10.80;;;;;;;30.05;29.93;98667.81;125972;1101;102978;-75
2021/04/28 09:49:57;;;;;;;18.70;10.37;;;;;;;29.83;29.78;98662.20;125995;1101;103432;-75
2021/04/28 09:52:28;;;;;;;19.53;10.60;;;;;;;29.48;30.14;98655.84;125997;1101;103009;-76
2021/04/28 09:55:04;;;;;;;19.70;10.40;;;;;;;28.63;29.17;98658.20;125977;1101;103247;-75
2021/04/28 09:57:38;;;;;;;20.50;11.13;;;;;;;27.38;29.04;98657.04;125997;1096;103052;-74
2021/04/28 10:00:21;;;;;;;29.93;20.43;;;;;;;26.95;29.21;98655.30;125927;1101;102984;-74
2021/04/28 10:02:55;;;;;;;20.03;10.90;;;;;;;26.32;28.85;98660.77;125972;1101;103106;-73
2021/04/28 10:05:41;;;;;;;18.50;9.77;;;;;;;25.15;28.68;98656.55;125967;1096;103007;-75
2021/04/28 10:08:12;;;;;;;21.57;11.50;;;;;;;24.62;28.65;98650.23;125866;1101;103078;-74
2021/04/28 10:10:43;;;;;;;20.53;9.73;;;;;;;24.08;28.12;98648.45;125959;1101;103014;-77
2021/04/28 10:13:14;;;;;;;19.63;10.43;;;;;;;23.22;27.54;98638.27;125955;1101;103004;-76
2021/04/28 10:15:44;;;;;;;23.50;11.43;;;;;;;22.62;27.85;98636.17;125886;1101;102979;-73
2021/04/28 10:18:15;;;;;;;20.30;9.57;;;;;;;22.40;27.67;98636.20;125963;1101;103063;-75
2021/04/28 10:20:46;;;;;;;19.43;9.63;;;;;;;22.12;27.75;98637.08;125905;1101;103598;-73
2021/04/28 10:23:18;;;;;;;;;;;;;;;21.90;27.99;98634.39;126015;1101;102960;-72
2021/04/28 10:25:50;;;;;;;21.27;8.37;;;;;;;21.71;27.63;98635.91;125974;1096;102984;-73
2021/04/28 10:28:25;;;;;;;13.30;5.90;;;;;;;21.45;27.07;98640.02;125984;1101;103181;-75
2021/04/28 10:30:55;;;;;;;10.57;4.77;;;;;;;20.71;26.02;98639.13;125982;1096;103142;-75
2021/04/28 10:33:32;;;;;;;12.13;5.10;;;;;;;20.06;26.35;98636.97;125992;1101;102979;-75
2021/04/28 10:36:22;;;;;;;13.77;5.50;;;;;;;19.90;26.97;98637.96;125955;1101;102977;-74
2021/04/28 10:38:52;;;;;;;13.20;5.33;;;;;;;19.81;26.83;98635.49;125979;1101;103043;-75
2021/04/28 10:41:44;;;;;;;11.95;4.90;;;;;;;19.85;26.82;98620.63;125978;1101;103001;-73
2021/04/28 10:44:34;;;;;;;10.77;4.97;;;;;;;19.92;27.00;98622.42;125959;1096;103006;-75
2021/04/28 10:47:42;;;;;;;10.23;4.33;;;;;;;19.91;26.42;98614.53;125741;1096;102981;-73
2021/04/28 10:50:40;;;;;;;10.70;4.37;;;;;;;19.68;26.68;98622.63;125967;1101;102976;-75
2021/04/28 10:53:28;;;;;;;9.03;4.60;;;;;;;19.56;26.39;98627.62;125593;1101;103093;-73
2021/04/28 10:56:12;;;;;;;13.77;4.70;;;;;;;19.42;26.48;98619.28;125990;1101;103075;-73
2021/04/28 10:58:47;;;;;;;18.17;4.60;;;;;;;19.15;26.06;98610.71;125925;1101;103077;-73
2021/04/28 11:01:20;;;;;;;;;;;;;;;19.08;25.41;98601.66;125891;1096;102797;-73
2021/04/28 11:03:52;;;;;;;10.03;4.05;;;;;;;19.03;25.98;98604.86;125992;1101;102977;-74
2021/04/28 11:09:10;;;;;;;6.27;3.20;;;;;;;19.05;25.82;98596.62;125982;1101;103006;-73
2021/04/28 11:11:44;;;;;;;8.97;3.50;;;;;;;18.92;25.97;98596.31;125945;1096;103078;-73
2021/04/28 11:14:17;;;;;;;9.63;4.13;;;;;;;18.68;25.54;98593.58;126315;1101;103072;-74
2021/04/28 11:17:14;;;;;;;7.03;3.70;;;;;;;18.56;25.86;98601.20;125954;1101;103084;-74
2021/04/28 11:19:45;;;;;;;11.03;4.27;;;;;;;18.58;25.32;98599.18;125946;1096;103050;-73
2021/04/28 11:22:15;;;;;;;11.37;4.37;;;;;;;18.51;25.42;98592.81;125992;1096;103133;-73
2021/04/28 11:25:06;;;;;;;9.13;3.90;;;;;;;18.39;25.57;98586.97;125959;1101;102985;-75